createdAt,value
2022-11-15T00:02:16.773Z,81.00
2022-11-15T00:05:02.235Z,81.10
2022-11-15T00:07:55.465Z,81.20
2022-11-15T00:10:42.077Z,81.10
2022-11-15T00:13:29.255Z,81.10
2022-11-15T00:16:15.043Z,81.20
2022-11-15T00:19:01.479Z,81.20
2022-11-15T00:21:46.926Z,81.30
2022-11-15T00:24:32.678Z,81.30
2022-11-15T00:27:18.317Z,81.30
2022-11-15T00:30:04.452Z,81.30
2022-11-15T00:32:50.357Z,81.30
2022-11-15T00:35:36.190Z,81.40
2022-11-15T00:38:21.626Z,81.50
2022-11-15T00:41:09.850Z,81.40
2022-11-15T00:43:55.958Z,81.50
2022-11-15T00:46:41.516Z,81.40
2022-11-15T00:49:27.205Z,81.40
2022-11-15T00:52:13.218Z,81.30
2022-11-15T00:54:58.954Z,81.40
2022-11-15T00:57:45.698Z,81.50
2022-11-15T01:00:31.373Z,81.50
2022-11-15T01:03:17.279Z,81.50
2022-11-15T01:06:03.345Z,81.60
2022-11-15T01:08:49.371Z,81.60
2022-11-15T01:11:35.074Z,81.60
2022-11-15T01:14:25.205Z,81.50
2022-11-15T01:17:11.018Z,81.60
2022-11-15T01:19:56.341Z,81.50
2022-11-15T01:22:41.587Z,81.50
2022-11-15T01:25:27.128Z,81.50
2022-11-15T01:28:12.361Z,81.60
2022-11-15T01:31:00.950Z,81.50
2022-11-15T01:33:47.582Z,81.50
2022-11-15T01:36:33.254Z,81.50
2022-11-15T01:39:19.104Z,81.50
2022-11-15T01:42:05.535Z,81.50
2022-11-15T01:44:52.830Z,81.50
2022-11-15T01:47:42.045Z,81.60
2022-11-15T01:50:32.567Z,81.50
2022-11-15T01:53:21.407Z,81.50
2022-11-15T01:56:10.825Z,81.50
2022-11-15T01:59:00.120Z,81.50
2022-11-15T02:01:46.185Z,81.60
2022-11-15T02:04:36.435Z,81.50
2022-11-15T02:07:22.908Z,81.70
2022-11-15T02:10:13.305Z,81.60
2022-11-15T02:13:01.276Z,81.70
2022-11-15T02:16:27.749Z,81.60
2022-11-15T02:19:34.108Z,81.80
2022-11-15T02:22:43.963Z,81.70
2022-11-15T02:25:58.339Z,81.90
2022-11-15T02:29:04.901Z,81.80
2022-11-15T02:32:24.432Z,81.60
2022-11-15T02:35:31.362Z,81.60
2022-11-15T02:38:42.018Z,81.70
2022-11-15T02:41:54.768Z,81.80
2022-11-15T02:44:46.345Z,81.70
2022-11-15T02:47:39.859Z,81.70
2022-11-15T02:50:29.542Z,81.70
2022-11-15T02:53:16.459Z,81.70
2022-11-15T02:56:02.251Z,81.70
2022-11-15T02:59:18.752Z,81.80
2022-11-15T03:02:30.723Z,81.90
2022-11-15T03:05:43.435Z,81.90
2022-11-15T03:08:40.115Z,82.00
2022-11-15T03:11:26.270Z,81.80
2022-11-15T03:14:39.140Z,81.80
2022-11-15T03:17:37.828Z,82.00
2022-11-15T03:20:26.002Z,81.90
2022-11-15T03:23:12.286Z,81.80
2022-11-15T03:25:59.501Z,81.90
2022-11-15T03:29:02.437Z,81.90
2022-11-15T03:31:55.814Z,82.00
2022-11-15T03:35:02.873Z,82.00
2022-11-15T03:38:12.799Z,82.10
2022-11-15T03:41:06.002Z,82.00
2022-11-15T03:44:17.612Z,82.00
2022-11-15T03:47:39.829Z,82.10
2022-11-15T03:50:26.089Z,82.40
2022-11-15T03:53:12.645Z,82.30
2022-11-15T03:55:57.817Z,82.60
2022-11-15T03:58:44.128Z,82.10
2022-11-15T04:01:29.432Z,82.30
2022-11-15T04:04:15.501Z,82.30
2022-11-15T04:07:00.907Z,82.30
2022-11-15T04:10:04.402Z,82.40
2022-11-15T04:12:50.106Z,82.40
2022-11-15T04:15:36.144Z,82.40
2022-11-15T04:18:21.906Z,82.50
2022-11-15T04:21:27.576Z,82.80
2022-11-15T04:24:13.149Z,82.50
2022-11-15T04:26:59.807Z,82.50
2022-11-15T04:29:45.355Z,82.50
2022-11-15T04:32:31.135Z,82.50
2022-11-15T04:35:16.350Z,82.50
2022-11-15T04:38:04.412Z,82.50
2022-11-15T04:40:49.880Z,82.50
2022-11-15T04:43:35.773Z,82.60
2022-11-15T04:46:22.291Z,83.30
2022-11-15T04:49:08.102Z,82.60
2022-11-15T04:51:53.427Z,82.60
2022-11-15T04:54:39.275Z,82.60
2022-11-15T04:57:24.630Z,82.70
2022-11-15T05:00:15.129Z,82.70
2022-11-15T05:03:18.988Z,82.80
2022-11-15T05:06:05.280Z,82.70
2022-11-15T05:08:50.557Z,82.80
2022-11-15T05:11:36.528Z,82.70
2022-11-15T05:14:22.075Z,82.70
2022-11-15T05:17:07.678Z,82.80
2022-11-15T05:19:53.486Z,82.80
2022-11-15T05:22:40.369Z,82.80
2022-11-15T05:25:26.350Z,82.90
2022-11-15T05:28:12.507Z,82.90
2022-11-15T05:31:09.958Z,82.80
2022-11-15T05:33:57.604Z,82.90
2022-11-15T05:36:46.596Z,82.90
2022-11-15T05:39:32.611Z,83.00
2022-11-15T05:42:18.424Z,83.00
2022-11-15T05:45:07.670Z,83.00
2022-11-15T05:47:54.935Z,83.00
2022-11-15T05:50:44.956Z,83.00
2022-11-15T05:53:31.819Z,83.10
2022-11-15T05:56:18.183Z,83.10
2022-11-15T05:59:04.107Z,83.10
2022-11-15T06:01:50.477Z,83.20
2022-11-15T06:04:36.119Z,83.20
2022-11-15T06:07:22.437Z,83.30
2022-11-15T06:10:09.132Z,83.40
2022-11-15T06:13:05.855Z,83.40
2022-11-15T06:15:51.479Z,83.60
2022-11-15T06:18:38.815Z,83.60
2022-11-15T06:21:24.568Z,83.70
2022-11-15T06:24:10.929Z,83.60
2022-11-15T06:26:56.394Z,83.80
2022-11-15T06:29:42.220Z,83.80
2022-11-15T06:32:27.726Z,83.90
2022-11-15T06:35:14.380Z,83.90
2022-11-15T06:38:09.664Z,84.00
2022-11-15T06:40:55.162Z,84.00
2022-11-15T06:43:41.617Z,84.00
2022-11-15T06:46:27.336Z,84.10
2022-11-15T06:49:12.618Z,84.20
2022-11-15T06:51:58.310Z,84.20
2022-11-15T06:54:43.554Z,84.30
2022-11-15T06:57:29.071Z,84.40
2022-11-15T07:00:15.266Z,84.50
2022-11-15T07:03:02.047Z,84.60
2022-11-15T07:06:04.242Z,84.80
2022-11-15T07:08:52.669Z,84.90
2022-11-15T07:11:38.082Z,85.00
2022-11-15T07:14:24.072Z,85.00
2022-11-15T07:17:09.350Z,85.20
2022-11-15T07:19:55.410Z,85.30
2022-11-15T07:22:41.959Z,85.50
2022-11-15T07:25:28.181Z,85.60
2022-11-15T07:28:14.121Z,85.80
2022-11-15T07:31:04.103Z,86.00
2022-11-15T07:33:49.735Z,86.40
2022-11-15T07:36:35.970Z,87.20
2022-11-15T07:39:21.070Z,88.50
2022-11-15T07:42:25.675Z,89.80
2022-11-15T07:45:11.185Z,90.40
2022-11-15T07:47:57.851Z,90.80
2022-11-15T07:50:43.576Z,91.10
2022-11-15T07:53:30.108Z,91.40
2022-11-15T07:56:16.100Z,91.50
2022-11-15T07:59:02.048Z,91.60
2022-11-15T08:01:47.785Z,91.20
2022-11-15T08:04:33.829Z,90.80
2022-11-15T08:07:19.356Z,90.30
2022-11-15T08:10:08.245Z,89.50
2022-11-15T08:13:06.170Z,88.10
2022-11-15T08:15:56.421Z,86.50
2022-11-15T08:18:43.120Z,85.90
2022-11-15T08:21:29.446Z,84.50
2022-11-15T08:24:15.286Z,83.20
2022-11-15T08:27:00.982Z,81.70
2022-11-15T08:29:49.144Z,80.30
2022-11-15T08:32:35.236Z,78.60
2022-11-15T08:35:26.262Z,77.10
2022-11-15T08:38:14.380Z,75.80
2022-11-15T08:41:05.694Z,74.60
2022-11-15T08:43:51.294Z,72.10
2022-11-15T08:46:36.748Z,71.20
2022-11-15T08:49:22.470Z,70.30
2022-11-15T08:52:07.779Z,69.80
2022-11-15T08:54:53.692Z,68.50
2022-11-15T08:57:39.263Z,66.50
2022-11-15T09:00:25.409Z,64.80
2022-11-15T09:03:11.025Z,63.70
2022-11-15T09:06:01.902Z,62.30
2022-11-15T09:08:48.389Z,59.40
2022-11-15T09:11:34.301Z,59.20
2022-11-15T09:14:19.885Z,57.20
2022-11-15T09:17:10.094Z,55.90
2022-11-15T09:19:55.474Z,55.80
2022-11-15T09:22:41.543Z,55.80
2022-11-15T09:25:27.745Z,53.50
2022-11-15T09:28:13.603Z,53.70
2022-11-15T09:31:04.418Z,53.20
2022-11-15T09:33:50.387Z,52.00
2022-11-15T09:36:35.927Z,51.40
2022-11-15T09:39:21.981Z,47.70
2022-11-15T09:42:27.119Z,48.40
2022-11-15T09:46:02.155Z,48.50
2022-11-15T09:48:55.424Z,46.10
2022-11-15T09:51:51.046Z,47.20
2022-11-15T09:54:53.223Z,46.00
2022-11-15T09:57:41.193Z,43.20
2022-11-15T10:00:52.705Z,43.80
2022-11-15T10:03:35.276Z,42.60
2022-11-15T10:06:07.016Z,42.80
2022-11-15T10:09:16.467Z,42.50
2022-11-15T10:11:45.206Z,40.70
2022-11-15T10:14:25.497Z,41.80
2022-11-15T10:17:08.347Z,38.80
2022-11-15T10:19:57.104Z,39.00
2022-11-15T10:22:40.241Z,38.00
2022-11-15T10:25:10.434Z,39.30
2022-11-15T10:27:37.530Z,38.30
2022-11-15T10:30:12.814Z,38.90
2022-11-15T10:32:42.979Z,37.60
2022-11-15T10:35:28.307Z,38.00
2022-11-15T10:38:12.931Z,36.60
2022-11-15T10:40:42.071Z,36.00
2022-11-15T10:43:11.864Z,37.00
2022-11-15T10:45:39.503Z,36.30
2022-11-15T10:48:15.401Z,36.60
2022-11-15T10:50:45.445Z,34.60
2022-11-15T10:53:43.370Z,35.80
2022-11-15T10:56:16.616Z,33.10
2022-11-15T10:58:51.845Z,34.70
2022-11-15T11:01:25.318Z,34.60
2022-11-15T11:04:11.096Z,34.40
2022-11-15T11:06:58.228Z,32.50
2022-11-15T11:09:35.214Z,33.20
2022-11-15T11:12:06.787Z,34.00
2022-11-15T11:14:37.572Z,32.80
2022-11-15T11:17:49.362Z,31.60
2022-11-15T11:20:41.673Z,31.20
2022-11-15T11:23:39.233Z,31.60
2022-11-15T11:26:41.164Z,32.00
2022-11-15T11:29:50.820Z,30.80
2022-11-15T11:33:16.035Z,30.60
2022-11-15T11:36:16.526Z,30.60
2022-11-15T11:39:52.509Z,30.90
2022-11-15T11:42:47.353Z,31.10
2022-11-15T11:45:51.692Z,30.30
2022-11-15T11:48:30.773Z,30.40
2022-11-15T11:51:19.391Z,30.60
2022-11-15T11:53:55.750Z,30.00
2022-11-15T11:56:32.949Z,31.10
2022-11-15T11:59:25.380Z,30.00
2022-11-15T12:01:52.726Z,30.00
2022-11-15T12:04:28.595Z,30.40
2022-11-15T12:07:13.175Z,29.90
2022-11-15T12:10:00.085Z,29.60
2022-11-15T12:13:01.962Z,29.60
2022-11-15T12:15:57.019Z,29.40
2022-11-15T12:18:24.515Z,29.20
2022-11-15T12:21:15.917Z,29.60
2022-11-15T12:23:53.671Z,29.30
2022-11-15T12:26:34.319Z,29.10
2022-11-15T12:29:10.888Z,28.90
2022-11-15T12:31:57.455Z,29.10
2022-11-15T12:34:44.573Z,29.20
2022-11-15T12:37:39.406Z,29.40
2022-11-15T12:40:26.272Z,28.60
2022-11-15T12:43:00.375Z,28.80
2022-11-15T12:45:43.913Z,28.50
2022-11-15T12:48:16.852Z,28.50
2022-11-15T12:50:56.456Z,28.50
2022-11-15T12:53:26.434Z,28.40
2022-11-15T12:56:17.563Z,28.50
2022-11-15T12:59:03.199Z,27.70
2022-11-15T13:01:38.961Z,28.20
2022-11-15T13:04:28.017Z,28.20
2022-11-15T13:07:06.208Z,28.20
2022-11-15T13:09:33.036Z,28.10
2022-11-15T13:12:04.962Z,28.40
2022-11-15T13:14:38.169Z,28.40
2022-11-15T13:17:20.522Z,28.40
2022-11-15T13:19:55.014Z,28.50
2022-11-15T13:22:40.213Z,28.70
2022-11-15T13:25:35.640Z,28.70
2022-11-15T13:28:26.417Z,28.50
2022-11-15T13:31:17.016Z,28.60
2022-11-15T13:33:45.092Z,28.60
2022-11-15T13:36:26.363Z,28.60
2022-11-15T13:39:06.671Z,28.20
2022-11-15T13:41:37.317Z,28.40
2022-11-15T13:44:05.397Z,28.50
2022-11-15T13:46:34.612Z,28.60
2022-11-15T13:49:13.675Z,29.10
2022-11-15T13:51:52.202Z,28.70
2022-11-15T13:54:33.543Z,28.90
2022-11-15T13:57:06.814Z,29.10
2022-11-15T13:59:46.580Z,29.40
2022-11-15T14:02:35.703Z,29.70
2022-11-15T14:05:20.293Z,29.90
2022-11-15T14:08:13.587Z,30.20
2022-11-15T14:10:40.993Z,30.70
2022-11-15T14:13:29.378Z,31.00
2022-11-15T14:16:21.596Z,31.70
2022-11-15T14:18:53.716Z,32.90
2022-11-15T14:21:21.621Z,32.70
2022-11-15T14:23:50.166Z,33.20
2022-11-15T14:26:33.718Z,33.80
2022-11-15T14:29:26.679Z,35.00
2022-11-15T14:31:55.720Z,35.70
2022-11-15T14:34:23.175Z,35.80
2022-11-15T14:36:50.166Z,36.70
2022-11-15T14:39:17.259Z,37.40
2022-11-15T14:41:44.484Z,38.10
2022-11-15T14:44:13.246Z,38.80
2022-11-15T14:46:40.496Z,39.50
2022-11-15T14:49:07.369Z,40.10
2022-11-15T14:51:34.900Z,40.80
2022-11-15T14:54:01.987Z,41.30
2022-11-15T14:56:28.983Z,41.90
2022-11-15T14:58:56.256Z,42.60
2022-11-15T15:01:26.826Z,43.20
2022-11-15T15:03:59.126Z,44.10
2022-11-15T15:06:27.083Z,44.60
2022-11-15T15:08:54.338Z,45.10
2022-11-15T15:11:28.355Z,45.70
2022-11-15T15:13:57.948Z,46.50
2022-11-15T15:16:25.888Z,46.90
2022-11-15T15:18:53.394Z,47.50
2022-11-15T15:21:36.903Z,47.90
2022-11-15T15:24:05.267Z,48.80
2022-11-15T15:26:37.187Z,49.10
2022-11-15T15:29:04.673Z,49.80
2022-11-15T15:31:31.903Z,50.20
2022-11-15T15:33:58.850Z,50.70
2022-11-15T15:36:25.698Z,51.20
2022-11-15T15:38:53.554Z,51.80
2022-11-15T15:41:20.383Z,52.20
2022-11-15T15:43:48.350Z,52.80
2022-11-15T15:46:18.464Z,53.10
2022-11-15T15:48:46.471Z,53.80
2022-11-15T15:51:19.940Z,54.10
2022-11-15T15:53:49.312Z,54.60
2022-11-15T15:56:16.169Z,55.20
2022-11-15T15:58:43.072Z,55.60
2022-11-15T16:01:10.082Z,56.00
2022-11-15T16:03:37.153Z,56.40
2022-11-15T16:06:05.287Z,56.90
2022-11-15T16:08:42.843Z,57.30
2022-11-15T16:11:15.072Z,57.60
2022-11-15T16:13:42.041Z,57.90
2022-11-15T16:16:13.868Z,58.40
2022-11-15T16:18:41.464Z,58.90
2022-11-15T16:21:09.739Z,59.20
2022-11-15T16:23:36.674Z,59.70
2022-11-15T16:26:13.679Z,60.10
2022-11-15T16:28:40.616Z,60.70
2022-11-15T16:31:11.663Z,61.20
2022-11-15T16:33:40.144Z,62.10
2022-11-15T16:36:19.168Z,62.30
2022-11-15T16:38:47.063Z,62.80
2022-11-15T16:41:14.031Z,63.20
2022-11-15T16:43:40.952Z,63.70
2022-11-15T16:46:16.677Z,64.10
2022-11-15T16:48:43.982Z,64.80
2022-11-15T16:51:11.024Z,65.10
2022-11-15T16:53:38.223Z,65.40
2022-11-15T16:56:18.620Z,65.80
2022-11-15T16:58:45.922Z,66.10
2022-11-15T17:01:25.902Z,66.40
2022-11-15T17:03:53.657Z,67.30
2022-11-15T17:06:24.799Z,67.20
2022-11-15T17:08:52.215Z,67.50
2022-11-15T17:11:22.828Z,67.80
2022-11-15T17:13:49.894Z,68.30
2022-11-15T17:16:18.676Z,68.50
2022-11-15T17:18:45.767Z,69.00
2022-11-15T17:21:18.828Z,69.30
2022-11-15T17:23:46.683Z,69.70
2022-11-15T17:26:29.705Z,69.60
2022-11-15T17:29:01.014Z,70.10
2022-11-15T17:31:30.116Z,70.30
2022-11-15T17:33:57.025Z,70.70
2022-11-15T17:36:24.677Z,71.00
2022-11-15T17:38:58.123Z,71.40
2022-11-15T17:41:27.493Z,71.60
2022-11-15T17:43:58.213Z,71.90
2022-11-15T17:46:25.689Z,72.20
2022-11-15T17:48:52.785Z,72.40
2022-11-15T17:51:19.811Z,72.70
2022-11-15T17:53:49.154Z,73.00
2022-11-15T17:56:24.042Z,73.30
2022-11-15T17:58:56.578Z,73.80
2022-11-15T18:01:32.708Z,73.80
2022-11-15T18:04:02.063Z,74.10
2022-11-15T18:06:31.935Z,73.90
2022-11-15T18:08:59.704Z,74.20
2022-11-15T18:11:30.535Z,74.30
2022-11-15T18:14:07.056Z,74.60
2022-11-15T18:16:35.723Z,74.70
2022-11-15T18:19:09.000Z,75.30
2022-11-15T18:21:56.138Z,74.30
2022-11-15T18:24:35.214Z,74.50
2022-11-15T18:27:04.779Z,74.90
2022-11-15T18:29:34.594Z,74.90
2022-11-15T18:32:05.309Z,75.20
2022-11-15T18:34:34.060Z,75.30
2022-11-15T18:37:02.785Z,75.50
2022-11-15T18:39:30.624Z,75.50
2022-11-15T18:41:58.039Z,75.60
2022-11-15T18:44:25.299Z,75.80
2022-11-15T18:46:52.229Z,75.80
2022-11-15T18:49:20.257Z,75.90
2022-11-15T18:51:47.589Z,76.10
2022-11-15T18:54:17.138Z,76.40
2022-11-15T18:56:45.770Z,76.70
2022-11-15T18:59:13.372Z,77.10
2022-11-15T19:01:48.529Z,77.40
2022-11-15T19:04:19.600Z,77.90
2022-11-15T19:06:49.442Z,78.20
2022-11-15T19:09:18.961Z,78.30
2022-11-15T19:11:48.321Z,78.60
2022-11-15T19:14:18.277Z,78.80
2022-11-15T19:16:52.355Z,78.90
2022-11-15T19:19:28.943Z,78.90
2022-11-15T19:21:57.478Z,79.20
2022-11-15T19:24:26.998Z,79.10
2022-11-15T19:26:55.070Z,79.00
2022-11-15T19:29:22.212Z,79.00
2022-11-15T19:31:49.427Z,78.90
2022-11-15T19:34:16.632Z,78.80
2022-11-15T19:36:45.286Z,78.80
2022-11-15T19:39:14.625Z,78.90
2022-11-15T19:41:44.239Z,79.50
2022-11-15T19:44:13.046Z,78.80
2022-11-15T19:46:41.161Z,78.70
2022-11-15T19:49:10.811Z,78.70
2022-11-15T19:51:41.390Z,78.60
2022-11-15T19:54:09.758Z,78.60
2022-11-15T19:56:38.095Z,78.50
2022-11-15T19:59:05.515Z,78.50
2022-11-15T20:01:39.738Z,78.50
2022-11-15T20:04:09.948Z,78.40
2022-11-15T20:06:41.536Z,78.40
2022-11-15T20:09:13.091Z,78.30
2022-11-15T20:11:40.014Z,78.30
2022-11-15T20:14:09.448Z,78.20
2022-11-15T20:16:36.603Z,78.20
2022-11-15T20:19:03.887Z,78.50
2022-11-15T20:21:31.889Z,78.40
2022-11-15T20:23:58.990Z,78.40
2022-11-15T20:26:26.019Z,78.30
2022-11-15T20:28:53.068Z,78.30
2022-11-15T20:31:20.103Z,78.40
2022-11-15T20:33:47.062Z,78.40
2022-11-15T20:36:16.017Z,78.30
2022-11-15T20:38:44.592Z,78.30
2022-11-15T20:41:15.258Z,78.30
2022-11-15T20:43:43.971Z,78.50
2022-11-15T20:46:12.558Z,78.40
2022-11-15T20:48:40.621Z,78.50
2022-11-15T20:51:17.868Z,78.50
2022-11-15T20:53:46.728Z,78.60
2022-11-15T20:56:21.099Z,78.50
2022-11-15T20:58:50.526Z,78.50
2022-11-15T21:01:24.601Z,78.40
2022-11-15T21:03:54.410Z,78.60
2022-11-15T21:06:22.475Z,78.50
2022-11-15T21:09:09.728Z,78.50
2022-11-15T21:11:56.162Z,78.40
2022-11-15T21:14:23.228Z,78.30
2022-11-15T21:16:50.286Z,78.30
2022-11-15T21:19:17.394Z,78.30
2022-11-15T21:21:45.677Z,78.40
2022-11-15T21:24:12.791Z,78.40
2022-11-15T21:26:39.670Z,78.40
2022-11-15T21:29:06.819Z,78.30
2022-11-15T21:31:34.554Z,78.40
2022-11-15T21:34:02.665Z,78.40
2022-11-15T21:36:30.218Z,78.50
2022-11-15T21:38:57.194Z,78.50
2022-11-15T21:41:24.068Z,78.50
2022-11-15T21:43:51.616Z,78.50
2022-11-15T21:46:18.471Z,78.60
2022-11-15T21:48:45.823Z,78.70
2022-11-15T21:51:12.874Z,78.60
2022-11-15T21:53:40.007Z,78.50
2022-11-15T21:56:07.865Z,78.40
2022-11-15T21:58:35.928Z,78.40
2022-11-15T22:01:22.042Z,78.30
2022-11-15T22:03:49.263Z,78.30
2022-11-15T22:06:18.278Z,78.30
2022-11-15T22:08:46.540Z,78.20
2022-11-15T22:11:14.998Z,78.10
2022-11-15T22:13:42.430Z,78.10
2022-11-15T22:16:10.412Z,78.10
2022-11-15T22:18:39.024Z,78.10
2022-11-15T22:21:12.391Z,78.10
2022-11-15T22:23:40.887Z,78.10
2022-11-15T22:26:12.025Z,78.30
2022-11-15T22:28:39.270Z,78.20
2022-11-15T22:31:06.290Z,78.30
2022-11-15T22:33:35.080Z,78.40
2022-11-15T22:36:03.902Z,78.50
2022-11-15T22:38:32.109Z,78.60
2022-11-15T22:40:59.717Z,78.70
2022-11-15T22:43:28.330Z,78.70
2022-11-15T22:45:58.379Z,78.80
2022-11-15T22:48:37.272Z,78.80
2022-11-15T22:51:06.455Z,79.90
2022-11-15T22:53:33.555Z,78.80
2022-11-15T22:56:04.140Z,79.00
2022-11-15T22:58:33.549Z,79.00
2022-11-15T23:01:04.809Z,79.10
2022-11-15T23:03:34.059Z,79.20
2022-11-15T23:06:06.263Z,79.20
2022-11-15T23:08:34.226Z,79.10
2022-11-15T23:11:22.261Z,79.30
2022-11-15T23:13:53.112Z,79.30
2022-11-15T23:16:23.835Z,79.30
2022-11-15T23:18:54.772Z,79.40
2022-11-15T23:21:47.324Z,79.50
2022-11-15T23:24:15.483Z,80.20
2022-11-15T23:26:43.264Z,79.50
2022-11-15T23:29:13.608Z,79.40
2022-11-15T23:32:02.362Z,79.40
2022-11-15T23:34:37.061Z,79.30
2022-11-15T23:37:05.346Z,79.30
2022-11-15T23:39:32.681Z,79.30
2022-11-15T23:42:04.429Z,79.30
2022-11-15T23:44:34.974Z,79.30
2022-11-15T23:47:01.873Z,79.30
2022-11-15T23:49:29.379Z,79.20
2022-11-15T23:51:56.719Z,79.20
2022-11-15T23:54:23.700Z,79.10
2022-11-15T23:56:50.578Z,79.00
2022-11-15T23:59:18.019Z,79.10
